Capelinha, Brazil
Current Conditions -  °F | °C
As of 1:00 AM on Sunday 23 Nov 2014 (Local Time) from SBMK Reporting Station
Clear Clear  
Wind Chill: 73°   Ceiling: Unl
Heat Index: 73°   Visibility: 6mi
Dew Point: 66°   Wind: 2mph
Humidity: 78%   Direction: 70°ENE
Pressure: 29.97"   Gusts: NA
Location:  17.69°S, 42.54°W
Report Text: SBMK 230300Z 07002KT CAVOK 23/19 Q1015
Loading
Personal Weather Stations






























Interactive Weather Map New forecast layout! Learn more

10-Day Weather Forecast

Advertisements
Track Severe Weather on mobile